createdAt,value
2022-09-03T00:00:54.906Z,18.33
2022-09-03T00:03:44.365Z,26.80
2022-09-03T00:06:33.333Z,47.67
2022-09-03T00:09:03.706Z,25.58
2022-09-03T00:11:43.458Z,15.13
2022-09-03T00:14:20.787Z,10.15
2022-09-03T00:16:53.161Z,16.88
2022-09-03T00:19:33.823Z,21.40
2022-09-03T00:22:08.784Z,29.23
2022-09-03T00:24:38.210Z,10.77
2022-09-03T00:27:11.478Z,31.70
2022-09-03T00:29:55.037Z,51.63
2022-09-03T00:32:47.821Z,25.35
2022-09-03T00:35:21.749Z,11.02
2022-09-03T00:37:49.079Z,23.02
2022-09-03T00:40:32.516Z,31.45
2022-09-03T00:43:06.128Z,30.20
2022-09-03T00:45:41.531Z,40.58
2022-09-03T00:48:27.743Z,56.20
2022-09-03T00:51:11.907Z,24.73
2022-09-03T00:53:59.313Z,29.30
2022-09-03T00:56:44.435Z,38.75
2022-09-03T00:59:37.107Z,26.95
2022-09-03T01:02:36.441Z,76.72
2022-09-03T01:05:35.705Z,77.35
2022-09-03T01:08:26.389Z,48.85
2022-09-03T01:11:07.966Z,106.00
2022-09-03T01:13:34.523Z,120.22
2022-09-03T01:16:16.291Z,95.22
2022-09-03T01:19:05.709Z,56.40
2022-09-03T01:22:26.313Z,63.10
2022-09-03T01:25:15.173Z,61.88
2022-09-03T01:28:05.984Z,45.40
2022-09-03T01:30:39.026Z,34.25
2022-09-03T01:33:14.191Z,59.30
2022-09-03T01:35:48.239Z,73.75
2022-09-03T01:38:34.434Z,74.65
2022-09-03T01:41:58.450Z,94.25
2022-09-03T01:44:32.704Z,83.22
2022-09-03T01:47:11.762Z,86.85
2022-09-03T01:50:20.956Z,77.63
2022-09-03T01:53:05.690Z,89.82
2022-09-03T01:55:32.233Z,63.22
2022-09-03T01:58:24.256Z,112.28
2022-09-03T02:00:59.103Z,150.45
2022-09-03T02:03:33.584Z,104.00
2022-09-03T02:06:00.616Z,114.07
2022-09-03T02:08:27.131Z,141.13
2022-09-03T02:11:01.862Z,140.95
2022-09-03T02:13:48.715Z,123.57
2022-09-03T02:16:27.772Z,132.25
2022-09-03T02:18:57.733Z,80.38
2022-09-03T02:21:27.416Z,70.55
2022-09-03T02:23:54.063Z,52.38
2022-09-03T02:26:23.782Z,27.60
2022-09-03T02:28:52.008Z,30.25
2022-09-03T02:31:18.990Z,32.25
2022-09-03T02:33:49.011Z,17.05
2022-09-03T02:36:19.280Z,9.95
2022-09-03T02:38:46.581Z,8.25
2022-09-03T02:41:14.161Z,7.03
2022-09-03T02:43:55.335Z,23.45
2022-09-03T02:46:26.979Z,16.00
2022-09-03T02:48:54.936Z,26.60
2022-09-03T02:51:21.645Z,41.08
2022-09-03T02:53:48.194Z,66.40
2022-09-03T02:56:14.708Z,60.58
2022-09-03T02:58:41.485Z,71.18
2022-09-03T03:01:08.296Z,99.00
2022-09-03T03:03:34.844Z,101.15
2022-09-03T03:06:04.562Z,144.25
2022-09-03T03:08:32.961Z,126.28
2022-09-03T03:11:00.677Z,107.35
2022-09-03T03:13:28.351Z,73.93
2022-09-03T03:16:03.287Z,91.68
2022-09-03T03:18:30.030Z,85.82
2022-09-03T03:20:56.510Z,92.65
2022-09-03T03:23:23.091Z,62.03
2022-09-03T03:25:49.864Z,72.18
2022-09-03T03:28:18.109Z,157.73
2022-09-03T03:30:47.599Z,106.38
2022-09-03T03:33:14.214Z,172.13
2022-09-03T03:35:42.603Z,150.10
2022-09-03T03:38:09.127Z,170.02
2022-09-03T03:40:38.472Z,104.35
2022-09-03T03:43:04.976Z,145.07
2022-09-03T03:45:31.458Z,108.30
2022-09-03T03:47:59.212Z,123.10
2022-09-03T03:50:26.164Z,110.90
2022-09-03T03:52:52.654Z,106.80
2022-09-03T03:55:19.135Z,121.72
2022-09-03T03:57:46.757Z,184.35
2022-09-03T04:00:14.367Z,75.57
2022-09-03T04:02:40.887Z,105.90
2022-09-03T04:05:07.825Z,133.38
2022-09-03T04:07:34.911Z,87.90
2022-09-03T04:10:01.469Z,84.13
2022-09-03T04:12:27.999Z,66.75
2022-09-03T04:14:54.483Z,73.28
2022-09-03T04:17:25.025Z,83.95
2022-09-03T04:19:51.840Z,48.50
2022-09-03T04:22:19.120Z,80.43
2022-09-03T04:24:45.608Z,92.43
2022-09-03T04:27:12.076Z,168.77
2022-09-03T04:29:38.592Z,62.58
2022-09-03T04:32:24.890Z,91.03
2022-09-03T04:34:51.391Z,95.40
2022-09-03T04:37:19.823Z,92.57
2022-09-03T04:39:46.442Z,60.42
2022-09-03T04:42:12.987Z,81.90
2022-09-03T04:44:41.131Z,43.08
2022-09-03T04:47:07.688Z,50.67
2022-09-03T04:49:34.619Z,51.60
2022-09-03T04:52:01.495Z,49.13
2022-09-03T04:54:29.228Z,51.72
2022-09-03T04:56:56.389Z,47.72
2022-09-03T04:59:22.909Z,38.03
2022-09-03T05:01:49.525Z,26.75
2022-09-03T05:04:16.047Z,46.55
2022-09-03T05:06:43.377Z,42.63
2022-09-03T05:09:09.925Z,21.02
2022-09-03T05:11:36.785Z,9.48
2022-09-03T05:14:05.900Z,25.77
2022-09-03T05:16:32.532Z,16.95
2022-09-03T05:19:00.841Z,5.07
2022-09-03T05:21:28.468Z,11.68
2022-09-03T05:23:54.988Z,9.52
2022-09-03T05:26:27.433Z,18.52
2022-09-03T05:28:56.267Z,7.18
2022-09-03T05:31:26.287Z,10.48
2022-09-03T05:33:55.005Z,15.70
2022-09-03T05:36:23.428Z,18.58
2022-09-03T05:38:50.856Z,19.30
2022-09-03T05:41:18.918Z,26.75
2022-09-03T05:43:51.879Z,40.03
2022-09-03T05:46:18.470Z,16.27
2022-09-03T05:48:45.544Z,16.45
2022-09-03T05:51:17.108Z,9.13
2022-09-03T05:53:45.991Z,14.35
2022-09-03T05:56:20.916Z,5.60
2022-09-03T05:58:50.159Z,9.73
2022-09-03T06:01:20.915Z,1.77
2022-09-03T06:03:53.592Z,5.43
2022-09-03T06:06:25.461Z,2.80
2022-09-03T06:08:53.491Z,4.20
2022-09-03T06:11:20.779Z,2.05
2022-09-03T06:13:47.721Z,2.55
2022-09-03T06:16:14.555Z,2.05
2022-09-03T06:18:41.187Z,2.20
2022-09-03T06:21:07.859Z,2.28
2022-09-03T06:23:36.267Z,3.42
2022-09-03T06:28:36.207Z,1.80
2022-09-03T06:31:04.653Z,2.92
2022-09-03T06:33:32.749Z,2.55
2022-09-03T06:36:00.979Z,1.75
2022-09-03T06:38:35.779Z,2.00
2022-09-03T06:41:05.049Z,1.95
2022-09-03T06:43:34.228Z,7.40
2022-09-03T06:46:03.629Z,5.68
2022-09-03T06:48:32.484Z,4.40
2022-09-03T06:51:01.315Z,8.23
2022-09-03T06:53:32.225Z,1.88
2022-09-03T06:56:04.518Z,20.35
2022-09-03T06:58:33.624Z,11.27
2022-09-03T07:01:12.860Z,6.50
2022-09-03T07:03:41.109Z,6.03
2022-09-03T07:06:13.892Z,25.55
2022-09-03T07:08:41.863Z,22.35
2022-09-03T07:11:12.015Z,6.22
2022-09-03T07:13:41.171Z,2.80
2022-09-03T07:16:11.297Z,9.27
2022-09-03T07:18:37.891Z,9.50
2022-09-03T07:21:07.628Z,8.57
2022-09-03T07:23:35.671Z,19.65
2022-09-03T07:26:05.546Z,3.60
2022-09-03T07:28:34.319Z,2.40
2022-09-03T07:31:13.850Z,4.32
2022-09-03T07:33:41.063Z,9.15
2022-09-03T07:36:10.401Z,4.13
2022-09-03T07:38:37.455Z,1.55
2022-09-03T07:41:08.368Z,1.88
2022-09-03T07:43:48.922Z,11.95
2022-09-03T07:46:24.185Z,3.60
2022-09-03T07:48:52.321Z,2.70
2022-09-03T07:51:20.643Z,1.88
2022-09-03T07:53:48.688Z,2.58
2022-09-03T07:56:15.842Z,4.80
2022-09-03T07:58:42.928Z,1.52
2022-09-03T08:01:13.178Z,1.60
2022-09-03T08:03:45.333Z,2.63
2022-09-03T08:06:12.887Z,2.60
2022-09-03T08:08:40.266Z,2.43
2022-09-03T08:11:10.778Z,3.22
2022-09-03T08:13:42.248Z,1.90
2022-09-03T08:16:09.885Z,12.88
2022-09-03T08:18:39.168Z,4.03
2022-09-03T08:21:16.980Z,31.88
2022-09-03T08:23:45.834Z,11.68
2022-09-03T08:26:13.783Z,2.78
2022-09-03T08:28:40.648Z,2.97
2022-09-03T08:31:12.699Z,7.35
2022-09-03T08:33:44.967Z,4.38
2022-09-03T08:36:26.973Z,4.00
2022-09-03T08:38:55.260Z,1.70
2022-09-03T08:41:40.883Z,4.95
2022-09-03T08:44:16.333Z,6.45
2022-09-03T08:46:58.249Z,10.25
2022-09-03T08:49:39.992Z,5.80
2022-09-03T08:52:20.240Z,6.00
2022-09-03T08:54:49.347Z,7.85
2022-09-03T08:57:19.257Z,3.60
2022-09-03T08:59:46.674Z,1.67
2022-09-03T09:02:53.647Z,2.53
2022-09-03T09:05:58.907Z,3.97
2022-09-03T09:09:11.558Z,1.83
2022-09-03T09:12:00.137Z,5.95
2022-09-03T09:15:00.158Z,11.05
2022-09-03T09:17:52.273Z,2.70
2022-09-03T09:20:32.732Z,3.72
2022-09-03T09:23:07.665Z,2.35
2022-09-03T09:25:47.134Z,3.30
2022-09-03T09:28:24.406Z,7.20
2022-09-03T09:30:55.647Z,12.77
2022-09-03T09:33:23.571Z,4.28
2022-09-03T09:35:50.323Z,13.70
2022-09-03T09:38:28.498Z,7.22
2022-09-03T09:40:57.522Z,3.80
2022-09-03T09:43:24.570Z,4.47
2022-09-03T09:45:53.320Z,6.25
2022-09-03T09:48:31.159Z,4.00
2022-09-03T09:51:12.254Z,3.15
2022-09-03T09:53:40.051Z,3.13
2022-09-03T09:56:07.944Z,5.40
2022-09-03T09:58:35.831Z,5.07
2022-09-03T10:01:18.722Z,4.07
2022-09-03T10:03:55.125Z,11.43
2022-09-03T10:06:47.964Z,10.50
2022-09-03T10:09:26.745Z,7.22
2022-09-03T10:11:58.205Z,5.47
2022-09-03T10:14:33.234Z,2.83
2022-09-03T10:17:10.656Z,2.83
2022-09-03T10:20:27.281Z,11.87
2022-09-03T10:22:59.231Z,4.65
2022-09-03T10:25:32.131Z,2.75
2022-09-03T10:28:01.967Z,2.88
2022-09-03T10:30:31.466Z,6.15
2022-09-03T10:33:24.888Z,4.43
2022-09-03T10:36:07.386Z,1.48
2022-09-03T10:38:34.626Z,2.60
2022-09-03T10:41:21.294Z,2.22
2022-09-03T10:44:09.024Z,4.45
2022-09-03T10:46:50.342Z,2.17
2022-09-03T10:49:41.227Z,14.68
2022-09-03T10:52:35.146Z,1.42
2022-09-03T10:55:23.752Z,4.43
2022-09-03T10:57:56.198Z,3.47
2022-09-03T11:00:23.818Z,1.27
2022-09-03T11:03:29.930Z,3.45
2022-09-03T11:05:58.643Z,3.83
2022-09-03T11:08:31.240Z,5.78
2022-09-03T11:11:10.633Z,7.93
2022-09-03T11:13:47.272Z,8.40
2022-09-03T11:16:31.078Z,1.90
2022-09-03T11:19:04.185Z,5.28
2022-09-03T11:21:32.803Z,2.17
2022-09-03T11:24:06.782Z,3.10
2022-09-03T11:26:35.300Z,2.58
2022-09-03T11:29:06.969Z,5.75
2022-09-03T11:32:00.254Z,2.47
2022-09-03T11:34:32.021Z,3.67
2022-09-03T11:37:29.932Z,3.83
2022-09-03T11:40:05.874Z,3.50
2022-09-03T11:42:39.249Z,2.10
2022-09-03T11:45:30.113Z,3.22
2022-09-03T11:47:56.779Z,1.80
2022-09-03T11:50:31.640Z,6.53
2022-09-03T11:53:10.652Z,21.25
2022-09-03T11:56:06.459Z,4.22
2022-09-03T11:58:36.568Z,4.60
2022-09-03T12:01:09.023Z,4.25
2022-09-03T12:04:08.057Z,1.83
2022-09-03T12:06:54.317Z,3.75
2022-09-03T12:09:39.619Z,12.27
2022-09-03T12:12:36.949Z,5.45
2022-09-03T12:15:40.817Z,1.50
2022-09-03T12:18:20.637Z,2.65
2022-09-03T12:20:50.807Z,4.10
2022-09-03T12:23:35.287Z,1.30
2022-09-03T12:26:08.318Z,2.05
2022-09-03T12:28:41.457Z,1.67
2022-09-03T12:31:24.729Z,2.30
2022-09-03T12:33:59.907Z,5.78
2022-09-03T12:36:37.064Z,2.97
2022-09-03T12:42:20.847Z,2.17
2022-09-03T12:44:47.604Z,4.88
2022-09-03T12:47:36.905Z,2.08
2022-09-03T12:50:24.286Z,1.50
2022-09-03T12:52:56.297Z,3.00
2022-09-03T12:55:42.898Z,3.50
2022-09-03T12:58:25.536Z,3.60
2022-09-03T13:01:01.054Z,2.17
2022-09-03T13:03:32.599Z,1.75
2022-09-03T13:06:08.152Z,3.05
2022-09-03T13:08:50.649Z,4.10
2022-09-03T13:11:21.064Z,4.05
2022-09-03T13:14:00.494Z,3.47
2022-09-03T13:16:45.372Z,1.90
2022-09-03T13:19:11.856Z,1.60
2022-09-03T13:22:04.207Z,2.00
2022-09-03T13:24:51.920Z,3.58
2022-09-03T13:27:26.478Z,2.22
2022-09-03T13:30:05.221Z,9.20
2022-09-03T13:32:51.786Z,2.00
2022-09-03T13:35:34.628Z,4.85
2022-09-03T13:38:14.816Z,3.50
2022-09-03T13:41:21.509Z,2.58
2022-09-03T13:44:07.818Z,1.83
2022-09-03T13:46:46.583Z,2.60
2022-09-03T13:49:37.759Z,4.57
2022-09-03T13:52:11.329Z,4.50
2022-09-03T13:54:49.818Z,4.10
2022-09-03T13:57:22.529Z,2.47
2022-09-03T14:00:00.051Z,9.73
2022-09-03T14:02:45.367Z,3.42
2022-09-03T14:05:19.697Z,3.20
2022-09-03T14:08:02.690Z,3.60
2022-09-03T14:10:52.685Z,2.45
2022-09-03T14:13:37.547Z,3.90
2022-09-03T14:16:09.124Z,6.72
2022-09-03T14:18:51.886Z,4.40
2022-09-03T14:21:44.356Z,4.50
2022-09-03T14:24:37.628Z,5.35
2022-09-03T14:27:04.848Z,2.80
2022-09-03T14:29:35.978Z,2.78
2022-09-03T14:32:15.443Z,2.20
2022-09-03T14:35:04.561Z,2.83
2022-09-03T14:37:50.094Z,5.07
2022-09-03T14:40:29.778Z,11.50
2022-09-03T14:43:33.919Z,1.92
2022-09-03T14:46:23.128Z,7.57
2022-09-03T14:49:04.980Z,2.10
2022-09-03T14:51:56.015Z,2.55
2022-09-03T14:55:16.818Z,13.80
2022-09-03T14:57:55.233Z,10.93
2022-09-03T15:00:33.352Z,2.38
2022-09-03T15:03:42.836Z,2.88
2022-09-03T15:06:36.804Z,1.75
2022-09-03T15:09:40.584Z,2.50
2022-09-03T15:12:23.487Z,2.88
2022-09-03T15:14:55.078Z,1.30
2022-09-03T15:17:46.190Z,5.05
2022-09-03T15:20:43.638Z,12.25
2022-09-03T15:23:38.035Z,5.78
2022-09-03T15:26:10.899Z,5.93
2022-09-03T15:29:02.040Z,5.38
2022-09-03T15:31:47.205Z,1.90
2022-09-03T15:34:22.815Z,10.63
2022-09-03T15:36:54.516Z,3.42
2022-09-03T15:39:27.147Z,1.52
2022-09-03T15:41:58.250Z,1.73
2022-09-03T15:44:27.908Z,6.65
2022-09-03T15:47:00.699Z,1.30
2022-09-03T15:49:58.384Z,2.20
2022-09-03T15:52:43.101Z,3.20
2022-09-03T15:55:09.815Z,4.63
2022-09-03T15:58:06.078Z,3.08
2022-09-03T16:00:48.382Z,2.15
2022-09-03T16:03:23.823Z,3.65
2022-09-03T16:06:20.820Z,2.67
2022-09-03T16:08:55.790Z,7.03
2022-09-03T16:11:52.088Z,3.90
2022-09-03T16:14:28.846Z,79.85
2022-09-03T16:17:16.058Z,3.55
2022-09-03T16:20:01.662Z,1.90
2022-09-03T16:22:34.142Z,3.42
2022-09-03T16:25:09.850Z,1.80
2022-09-03T16:27:51.360Z,5.13
2022-09-03T16:30:39.016Z,5.25
2022-09-03T16:33:27.839Z,3.75
2022-09-03T16:36:01.576Z,2.33
2022-09-03T16:38:47.616Z,3.28
2022-09-03T16:41:28.140Z,1.73
2022-09-03T16:44:33.853Z,3.58
2022-09-03T16:47:19.081Z,7.25
2022-09-03T16:50:04.913Z,6.57
2022-09-03T16:52:54.133Z,6.30
2022-09-03T16:55:25.500Z,2.90
2022-09-03T16:57:54.740Z,4.13
2022-09-03T17:00:22.294Z,3.47
2022-09-03T17:03:26.767Z,1.57
2022-09-03T17:06:11.419Z,2.10
2022-09-03T17:08:58.547Z,4.28
2022-09-03T17:11:46.324Z,3.08
2022-09-03T17:14:25.973Z,2.63
2022-09-03T17:17:08.536Z,4.05
2022-09-03T17:20:13.190Z,3.30
2022-09-03T17:22:42.636Z,3.20
2022-09-03T17:25:29.019Z,5.53
2022-09-03T17:28:57.844Z,1.60
2022-09-03T17:31:40.614Z,6.50
2022-09-03T17:34:19.618Z,11.38
2022-09-03T17:37:27.514Z,10.07
2022-09-03T17:40:31.013Z,8.18
2022-09-03T17:43:18.540Z,8.27
2022-09-03T17:45:51.086Z,6.82
2022-09-03T17:48:24.900Z,10.52
2022-09-03T17:50:57.430Z,12.27
2022-09-03T17:53:48.820Z,7.63
2022-09-03T17:56:33.704Z,16.77
2022-09-03T17:59:08.008Z,3.72
2022-09-03T18:01:38.721Z,4.13
2022-09-03T18:04:19.983Z,6.35
2022-09-03T18:07:08.112Z,2.63
2022-09-03T18:09:46.164Z,6.72
2022-09-03T18:13:04.615Z,3.97
2022-09-03T18:15:40.345Z,1.65
2022-09-03T18:18:26.580Z,5.80
2022-09-03T18:21:25.234Z,1.80
2022-09-03T18:24:37.864Z,4.60
2022-09-03T18:27:31.346Z,2.53
2022-09-03T18:30:26.758Z,3.70
2022-09-03T18:33:12.252Z,1.50
2022-09-03T18:35:58.069Z,1.85
2022-09-03T18:38:45.869Z,4.35
2022-09-03T18:41:33.918Z,5.13
2022-09-03T18:44:37.531Z,2.78
2022-09-03T18:51:10.558Z,3.17
2022-09-03T18:54:26.225Z,3.08
2022-09-03T18:57:13.053Z,2.08
2022-09-03T19:00:28.788Z,2.20
2022-09-03T19:03:55.369Z,2.42
2022-09-03T19:06:55.424Z,5.20
2022-09-03T19:09:55.610Z,6.15
2022-09-03T19:12:40.500Z,4.38
2022-09-03T19:15:31.486Z,2.60
2022-09-03T19:18:38.598Z,2.95
2022-09-03T19:21:36.739Z,10.98
2022-09-03T19:27:51.711Z,4.07
2022-09-03T19:31:00.682Z,4.25
2022-09-03T19:34:10.799Z,2.88
2022-09-03T19:37:04.705Z,5.30
2022-09-03T19:40:27.403Z,25.50
2022-09-03T19:43:48.262Z,5.93
2022-09-03T19:46:48.818Z,2.75
2022-09-03T19:49:49.180Z,1.65
2022-09-03T19:52:40.308Z,5.05
2022-09-03T19:55:28.914Z,4.28
2022-09-03T19:58:39.602Z,7.63
2022-09-03T20:01:24.800Z,5.82
2022-09-03T20:04:10.894Z,6.72
2022-09-03T20:06:57.724Z,5.53
2022-09-03T20:09:48.223Z,4.68
2022-09-03T20:12:18.761Z,3.83
2022-09-03T20:14:45.293Z,5.35
2022-09-03T20:17:20.153Z,4.05
2022-09-03T20:19:55.577Z,7.10
2022-09-03T20:22:32.370Z,11.63
2022-09-03T20:24:59.642Z,5.03
2022-09-03T20:27:52.236Z,26.05
2022-09-03T20:30:21.242Z,11.45
2022-09-03T20:32:53.232Z,6.53
2022-09-03T20:35:25.910Z,6.38
2022-09-03T20:38:31.771Z,4.50
2022-09-03T20:41:26.404Z,2.53
2022-09-03T20:43:59.238Z,5.25
2022-09-03T20:46:54.922Z,7.75
2022-09-03T20:50:10.023Z,2.67
2022-09-03T20:53:02.026Z,6.10
2022-09-03T20:55:36.548Z,6.47
2022-09-03T20:58:18.228Z,5.15
2022-09-03T21:00:57.985Z,6.50
2022-09-03T21:03:32.149Z,7.03
2022-09-03T21:06:44.298Z,4.28
2022-09-03T21:09:29.567Z,7.93
2022-09-03T21:12:09.878Z,4.53
2022-09-03T21:14:54.494Z,6.68
2022-09-03T21:17:38.976Z,7.63
2022-09-03T21:20:15.879Z,4.25
2022-09-03T21:23:21.522Z,8.45
2022-09-03T21:25:54.223Z,11.98
2022-09-03T21:28:32.154Z,55.58
2022-09-03T21:31:02.461Z,25.67
2022-09-03T21:33:38.743Z,30.95
2022-09-03T21:36:20.217Z,34.92
2022-09-03T21:38:59.536Z,36.17
2022-09-03T21:41:47.563Z,21.80
2022-09-03T21:44:19.076Z,60.65
2022-09-03T21:46:54.719Z,24.75
2022-09-03T21:49:29.390Z,28.83
2022-09-03T21:52:04.095Z,35.72
2022-09-03T21:54:33.652Z,23.00
2022-09-03T21:57:28.443Z,35.70
2022-09-03T22:00:10.030Z,17.55
2022-09-03T22:02:36.929Z,28.70
2022-09-03T22:05:04.416Z,24.50
2022-09-03T22:07:50.821Z,23.52
2022-09-03T22:10:23.192Z,27.40
2022-09-03T22:13:27.316Z,12.88
2022-09-03T22:16:01.456Z,18.48
2022-09-03T22:18:31.106Z,19.38
2022-09-03T22:21:05.303Z,13.93
2022-09-03T22:23:56.164Z,23.13
2022-09-03T22:26:45.115Z,24.55
2022-09-03T22:29:15.452Z,27.67
2022-09-03T22:32:02.149Z,42.78
2022-09-03T22:34:43.808Z,48.22
2022-09-03T22:37:41.633Z,29.20
2022-09-03T22:40:42.125Z,30.40
2022-09-03T22:43:30.222Z,41.97
2022-09-03T22:46:10.396Z,37.03
2022-09-03T22:48:55.157Z,28.23
2022-09-03T22:51:22.104Z,33.05
2022-09-03T22:54:07.319Z,16.70
2022-09-03T22:56:38.095Z,16.10
2022-09-03T22:59:12.953Z,13.23
2022-09-03T23:01:45.363Z,15.82
2022-09-03T23:04:38.551Z,16.00
2022-09-03T23:07:31.507Z,13.57
2022-09-03T23:10:04.417Z,14.35
2022-09-03T23:12:44.987Z,5.20
2022-09-03T23:15:30.438Z,5.80
2022-09-03T23:18:17.599Z,5.05
2022-09-03T23:20:55.316Z,5.88
2022-09-03T23:23:44.998Z,4.40
2022-09-03T23:26:14.077Z,10.65
2022-09-03T23:28:54.439Z,5.85
2022-09-03T23:31:24.087Z,9.00
2022-09-03T23:33:53.780Z,12.48
2022-09-03T23:40:10.353Z,7.90
2022-09-03T23:43:00.643Z,24.77
2022-09-03T23:45:27.680Z,43.00
2022-09-03T23:48:12.214Z,48.65
2022-09-03T23:51:10.951Z,31.52
2022-09-03T23:54:02.597Z,36.88
2022-09-03T23:56:45.440Z,32.78
2022-09-03T23:59:30.588Z,29.38
